Terminal Aerodrome Forecast
Issued by NWS San Angelo, TX

Home | Current Version | Previous Version | Text Only | Print | Product List | Glossary On
Versions: 1 2 3 4 5 6 7 8 9 10 11 12 13 14 15
601
FTUS44 KSJT 282325
TAFABI
TAF
KABI 282325Z 2900/2924 14010KT P6SM VCTS SCT070CB
      TEMPO 2900/2902 04015G25KT 3SM -TSRA BKN050CB
     FM290200 14008KT P6SM SKC
     FM291500 17010KT P6SM SKC=

USA.gov is the U.S. government's official web portal to all federal, state and local government web resources and services.